Bannock, OH (43972)

8:01 AM EDT on September 05, 2015 (GMT -0400)
Morristown, Ohio | | Change Station
CLOSE
Current Station
Personal Weather Station
Location: Belmont, OH
Elevation: 1283 ft
Nearby Weather Stations

Elev 1283 ft 40.08 °N, 81.06 °W | Updated 7 minutes ago

Clear
Clear
67.8 °F
Feels Like 67.8 °F
N
2.2
Wind Variable Wind from ESE

Today
High -- | Low -- °F
--% Chance of Precip.
Yesterday
High -- | Low -- °F
Precip. -- in
6:55 AM 7:49 PM
Waning Gibbous, 49% visible
Pressure 30.18 in
Visibility 9.0 miles
Clouds Clear
Dew Point 67 °F
Humidity 98%
Rainfall 0.00 in
Snow Depth Not available.
UV 1 out of 12
Pollen 10.20 out of 12
Air Quality Not available.
Flu Activity Not available.
METAR KHLG 051153Z AUTO 00000KT 9SM CLR 19/17 A3019 RMK AO2 SLP218 T01890167 10200 20167 53012
Pressure 30.18 in
Visibility 9.0 miles
Clouds Clear
Dew Point 67 °F
Humidity 98%
Rainfall 0.00 in
Snow Depth Not available.
UV 1 out of 12
Pollen 10.20 out of 12
Air Quality Not available.
Flu Activity Not available.
METAR KHLG 051153Z AUTO 00000KT 9SM CLR 19/17 A3019 RMK AO2 SLP218 T01890167 10200 20167 53012

10-Day Weather Forecast

×

Almanac

Astronomy

Sep. 05, 2015 Rise Set
Actual Time
Civil Twilight
Nautical Twilight
Astronomical Twilight
Moon
Length of Visible Light
Length of Day
Tomorrow will be .
, % of the Moon is Illuminated

Today's Extremes

State Highs State Lows

Community

WunderPhotos

Upload Photos

1,852,453 photos uploaded!

WunderBlogs® & News

Nearby

Air Quality

  Air Quality AQ Index Pollutant
Not available.

Snow Depth

Station Depth Elevation

Earthquake Activity

City Distance Mag. Time & Date
Minimum magnitude displayed is 2.5.

Coastal Water Temperatures

Place Temperature

Stations

Nearby Weather Stations

Station Location Temp. Windchill Dew Point Humidity Wind Precip. Elev Updated Type